sensor_id;sensor_type;location;lat;lon;timestamp;P1;durP1;ratioP1;P2;durP2;ratioP2
9597;SDS011;4837;50.890;4.724;2023-04-25T00:01:17;13.80;;;5.35;;
9597;SDS011;4837;50.890;4.724;2023-04-25T00:03:43;18.83;;;5.95;;
9597;SDS011;4837;50.890;4.724;2023-04-25T00:06:11;12.63;;;5.72;;
9597;SDS011;4837;50.890;4.724;2023-04-25T00:08:37;13.43;;;5.32;;
9597;SDS011;4837;50.890;4.724;2023-04-25T00:11:03;11.13;;;4.95;;
9597;SDS011;4837;50.890;4.724;2023-04-25T00:13:29;13.75;;;5.45;;
9597;SDS011;4837;50.890;4.724;2023-04-25T00:15:55;8.93;;;5.10;;
9597;SDS011;4837;50.890;4.724;2023-04-25T00:18:23;12.15;;;5.75;;
9597;SDS011;4837;50.890;4.724;2023-04-25T00:20:49;11.95;;;5.35;;
9597;SDS011;4837;50.890;4.724;2023-04-25T00:23:16;15.25;;;5.70;;
9597;SDS011;4837;50.890;4.724;2023-04-25T00:25:45;17.88;;;5.72;;
9597;SDS011;4837;50.890;4.724;2023-04-25T00:28:11;13.07;;;5.40;;
9597;SDS011;4837;50.890;4.724;2023-04-25T00:30:38;9.63;;;4.88;;
9597;SDS011;4837;50.890;4.724;2023-04-25T00:33:04;10.07;;;4.95;;
9597;SDS011;4837;50.890;4.724;2023-04-25T00:35:30;15.98;;;5.32;;
9597;SDS011;4837;50.890;4.724;2023-04-25T00:37:56;15.40;;;5.25;;
9597;SDS011;4837;50.890;4.724;2023-04-25T00:40:23;15.55;;;5.88;;
9597;SDS011;4837;50.890;4.724;2023-04-25T00:42:49;12.82;;;5.50;;
9597;SDS011;4837;50.890;4.724;2023-04-25T00:45:17;15.35;;;5.13;;
9597;SDS011;4837;50.890;4.724;2023-04-25T00:47:43;14.63;;;5.47;;
9597;SDS011;4837;50.890;4.724;2023-04-25T00:50:10;13.85;;;5.15;;
9597;SDS011;4837;50.890;4.724;2023-04-25T00:52:37;14.85;;;6.00;;
9597;SDS011;4837;50.890;4.724;2023-04-25T00:55:04;12.23;;;5.53;;
9597;SDS011;4837;50.890;4.724;2023-04-25T00:57:31;12.48;;;5.45;;
9597;SDS011;4837;50.890;4.724;2023-04-25T00:59:57;14.45;;;6.03;;
9597;SDS011;4837;50.890;4.724;2023-04-25T01:02:24;15.95;;;5.95;;
9597;SDS011;4837;50.890;4.724;2023-04-25T01:04:52;13.18;;;5.22;;
9597;SDS011;4837;50.890;4.724;2023-04-25T01:07:18;14.25;;;5.75;;
9597;SDS011;4837;50.890;4.724;2023-04-25T01:09:45;13.27;;;5.93;;
9597;SDS011;4837;50.890;4.724;2023-04-25T01:12:11;14.60;;;5.90;;
9597;SDS011;4837;50.890;4.724;2023-04-25T01:14:39;10.27;;;5.20;;
9597;SDS011;4837;50.890;4.724;2023-04-25T01:17:05;15.75;;;6.25;;
9597;SDS011;4837;50.890;4.724;2023-04-25T01:19:32;12.20;;;5.20;;
9597;SDS011;4837;50.890;4.724;2023-04-25T01:21:58;14.18;;;5.95;;
9597;SDS011;4837;50.890;4.724;2023-04-25T01:24:25;14.47;;;5.80;;
9597;SDS011;4837;50.890;4.724;2023-04-25T01:26:52;16.48;;;6.45;;
9597;SDS011;4837;50.890;4.724;2023-04-25T01:29:18;12.45;;;5.65;;
9597;SDS011;4837;50.890;4.724;2023-04-25T01:31:45;16.73;;;6.47;;
9597;SDS011;4837;50.890;4.724;2023-04-25T01:34:11;13.90;;;5.70;;
9597;SDS011;4837;50.890;4.724;2023-04-25T01:36:38;14.87;;;6.10;;
9597;SDS011;4837;50.890;4.724;2023-04-25T01:39:04;15.07;;;6.20;;
9597;SDS011;4837;50.890;4.724;2023-04-25T01:41:30;14.67;;;6.23;;
9597;SDS011;4837;50.890;4.724;2023-04-25T01:43:56;12.68;;;6.10;;
9597;SDS011;4837;50.890;4.724;2023-04-25T01:46:23;16.40;;;6.93;;
9597;SDS011;4837;50.890;4.724;2023-04-25T01:48:49;14.37;;;6.60;;
9597;SDS011;4837;50.890;4.724;2023-04-25T01:51:15;14.57;;;5.63;;
9597;SDS011;4837;50.890;4.724;2023-04-25T01:53:41;16.73;;;6.55;;
9597;SDS011;4837;50.890;4.724;2023-04-25T01:56:08;19.10;;;6.40;;
9597;SDS011;4837;50.890;4.724;2023-04-25T01:58:35;15.27;;;6.25;;
9597;SDS011;4837;50.890;4.724;2023-04-25T02:01:01;16.55;;;5.57;;
9597;SDS011;4837;50.890;4.724;2023-04-25T02:03:27;17.85;;;5.40;;
9597;SDS011;4837;50.890;4.724;2023-04-25T02:05:53;16.60;;;5.55;;
9597;SDS011;4837;50.890;4.724;2023-04-25T02:08:20;12.88;;;5.28;;
9597;SDS011;4837;50.890;4.724;2023-04-25T02:10:46;16.80;;;5.65;;
9597;SDS011;4837;50.890;4.724;2023-04-25T02:13:12;11.73;;;5.57;;
9597;SDS011;4837;50.890;4.724;2023-04-25T02:15:38;15.32;;;5.00;;
9597;SDS011;4837;50.890;4.724;2023-04-25T02:18:04;12.47;;;5.40;;
9597;SDS011;4837;50.890;4.724;2023-04-25T02:20:31;15.38;;;5.18;;
9597;SDS011;4837;50.890;4.724;2023-04-25T02:22:57;13.68;;;4.93;;
9597;SDS011;4837;50.890;4.724;2023-04-25T02:25:23;18.42;;;5.35;;
9597;SDS011;4837;50.890;4.724;2023-04-25T02:27:49;13.48;;;5.65;;
9597;SDS011;4837;50.890;4.724;2023-04-25T02:30:16;14.43;;;5.40;;
9597;SDS011;4837;50.890;4.724;2023-04-25T02:32:42;14.20;;;5.47;;
9597;SDS011;4837;50.890;4.724;2023-04-25T02:35:09;14.93;;;4.95;;
9597;SDS011;4837;50.890;4.724;2023-04-25T02:37:36;14.55;;;5.47;;
9597;SDS011;4837;50.890;4.724;2023-04-25T02:40:02;12.85;;;4.60;;
9597;SDS011;4837;50.890;4.724;2023-04-25T02:42:29;13.80;;;5.03;;
9597;SDS011;4837;50.890;4.724;2023-04-25T02:44:55;16.58;;;5.32;;
9597;SDS011;4837;50.890;4.724;2023-04-25T02:47:21;14.80;;;4.82;;
9597;SDS011;4837;50.890;4.724;2023-04-25T02:49:47;13.85;;;5.28;;
9597;SDS011;4837;50.890;4.724;2023-04-25T02:52:13;12.03;;;5.03;;
9597;SDS011;4837;50.890;4.724;2023-04-25T02:54:40;14.97;;;5.37;;
9597;SDS011;4837;50.890;4.724;2023-04-25T02:57:06;18.50;;;5.28;;
9597;SDS011;4837;50.890;4.724;2023-04-25T02:59:32;12.38;;;5.30;;
9597;SDS011;4837;50.890;4.724;2023-04-25T03:01:58;14.80;;;5.45;;
9597;SDS011;4837;50.890;4.724;2023-04-25T03:04:24;13.02;;;5.15;;
9597;SDS011;4837;50.890;4.724;2023-04-25T03:06:51;13.90;;;5.37;;
9597;SDS011;4837;50.890;4.724;2023-04-25T03:09:17;17.58;;;5.72;;
9597;SDS011;4837;50.890;4.724;2023-04-25T03:11:43;17.95;;;5.00;;
9597;SDS011;4837;50.890;4.724;2023-04-25T03:14:10;10.75;;;5.22;;
9597;SDS011;4837;50.890;4.724;2023-04-25T03:16:36;11.98;;;5.00;;
9597;SDS011;4837;50.890;4.724;2023-04-25T03:19:02;12.15;;;5.00;;
9597;SDS011;4837;50.890;4.724;2023-04-25T03:21:29;13.95;;;5.28;;
9597;SDS011;4837;50.890;4.724;2023-04-25T03:23:57;20.35;;;5.28;;
9597;SDS011;4837;50.890;4.724;2023-04-25T03:26:23;15.57;;;5.38;;
9597;SDS011;4837;50.890;4.724;2023-04-25T03:28:49;15.02;;;5.70;;
9597;SDS011;4837;50.890;4.724;2023-04-25T03:31:15;14.93;;;4.93;;
9597;SDS011;4837;50.890;4.724;2023-04-25T03:33:41;11.43;;;4.38;;
9597;SDS011;4837;50.890;4.724;2023-04-25T03:36:07;16.30;;;5.40;;
9597;SDS011;4837;50.890;4.724;2023-04-25T03:38:34;16.45;;;5.22;;
9597;SDS011;4837;50.890;4.724;2023-04-25T03:41:01;15.73;;;5.07;;
9597;SDS011;4837;50.890;4.724;2023-04-25T03:43:27;9.27;;;3.93;;
9597;SDS011;4837;50.890;4.724;2023-04-25T03:45:53;13.75;;;5.22;;
9597;SDS011;4837;50.890;4.724;2023-04-25T03:48:19;15.98;;;5.22;;
9597;SDS011;4837;50.890;4.724;2023-04-25T03:50:51;15.17;;;4.90;;
9597;SDS011;4837;50.890;4.724;2023-04-25T03:53:17;14.07;;;4.67;;
9597;SDS011;4837;50.890;4.724;2023-04-25T03:55:43;15.57;;;5.50;;
9597;SDS011;4837;50.890;4.724;2023-04-25T03:58:09;11.95;;;4.22;;
9597;SDS011;4837;50.890;4.724;2023-04-25T04:00:35;16.40;;;5.25;;
9597;SDS011;4837;50.890;4.724;2023-04-25T04:03:02;13.35;;;4.63;;
9597;SDS011;4837;50.890;4.724;2023-04-25T04:05:28;15.75;;;5.28;;
9597;SDS011;4837;50.890;4.724;2023-04-25T04:07:54;13.03;;;4.90;;
9597;SDS011;4837;50.890;4.724;2023-04-25T04:10:20;13.40;;;5.35;;
9597;SDS011;4837;50.890;4.724;2023-04-25T04:12:46;17.77;;;5.47;;
9597;SDS011;4837;50.890;4.724;2023-04-25T04:15:13;15.05;;;5.15;;
9597;SDS011;4837;50.890;4.724;2023-04-25T04:17:39;13.87;;;4.90;;
9597;SDS011;4837;50.890;4.724;2023-04-25T04:20:06;14.97;;;4.90;;
9597;SDS011;4837;50.890;4.724;2023-04-25T04:22:33;13.15;;;5.05;;
9597;SDS011;4837;50.890;4.724;2023-04-25T04:24:59;18.65;;;5.18;;
9597;SDS011;4837;50.890;4.724;2023-04-25T04:27:25;13.70;;;4.63;;
9597;SDS011;4837;50.890;4.724;2023-04-25T04:29:53;13.57;;;5.68;;
9597;SDS011;4837;50.890;4.724;2023-04-25T04:32:19;17.63;;;5.55;;
9597;SDS011;4837;50.890;4.724;2023-04-25T04:34:45;16.83;;;5.20;;
9597;SDS011;4837;50.890;4.724;2023-04-25T04:37:12;13.30;;;4.60;;
9597;SDS011;4837;50.890;4.724;2023-04-25T04:39:38;10.65;;;4.85;;
9597;SDS011;4837;50.890;4.724;2023-04-25T04:42:05;14.95;;;5.18;;
9597;SDS011;4837;50.890;4.724;2023-04-25T04:44:31;11.70;;;5.03;;
9597;SDS011;4837;50.890;4.724;2023-04-25T04:47:00;14.30;;;5.57;;
9597;SDS011;4837;50.890;4.724;2023-04-25T04:49:28;14.93;;;5.53;;
9597;SDS011;4837;50.890;4.724;2023-04-25T04:51:55;13.27;;;4.97;;
9597;SDS011;4837;50.890;4.724;2023-04-25T04:54:21;12.02;;;5.05;;
9597;SDS011;4837;50.890;4.724;2023-04-25T04:56:47;13.25;;;5.18;;
9597;SDS011;4837;50.890;4.724;2023-04-25T04:59:13;11.95;;;4.30;;
9597;SDS011;4837;50.890;4.724;2023-04-25T05:01:40;13.15;;;5.07;;
9597;SDS011;4837;50.890;4.724;2023-04-25T05:04:06;14.25;;;5.10;;
9597;SDS011;4837;50.890;4.724;2023-04-25T05:06:32;14.52;;;5.20;;
9597;SDS011;4837;50.890;4.724;2023-04-25T05:08:58;11.30;;;4.67;;
9597;SDS011;4837;50.890;4.724;2023-04-25T05:11:25;14.13;;;4.80;;
9597;SDS011;4837;50.890;4.724;2023-04-25T05:13:51;13.85;;;5.63;;
9597;SDS011;4837;50.890;4.724;2023-04-25T05:16:17;15.03;;;5.37;;
9597;SDS011;4837;50.890;4.724;2023-04-25T05:18:43;13.40;;;4.90;;
9597;SDS011;4837;50.890;4.724;2023-04-25T05:21:10;12.00;;;5.50;;
9597;SDS011;4837;50.890;4.724;2023-04-25T05:23:36;12.47;;;4.70;;
9597;SDS011;4837;50.890;4.724;2023-04-25T05:26:02;11.23;;;4.78;;
9597;SDS011;4837;50.890;4.724;2023-04-25T05:28:28;11.32;;;4.70;;
9597;SDS011;4837;50.890;4.724;2023-04-25T05:30:54;13.30;;;4.43;;
9597;SDS011;4837;50.890;4.724;2023-04-25T05:33:20;13.68;;;5.05;;
9597;SDS011;4837;50.890;4.724;2023-04-25T05:35:47;11.85;;;4.80;;
9597;SDS011;4837;50.890;4.724;2023-04-25T05:38:16;15.18;;;5.65;;
9597;SDS011;4837;50.890;4.724;2023-04-25T05:40:42;14.00;;;5.45;;
9597;SDS011;4837;50.890;4.724;2023-04-25T05:43:08;11.35;;;4.60;;
9597;SDS011;4837;50.890;4.724;2023-04-25T05:45:34;12.10;;;4.70;;
9597;SDS011;4837;50.890;4.724;2023-04-25T05:48:01;12.82;;;4.78;;
9597;SDS011;4837;50.890;4.724;2023-04-25T05:50:28;12.18;;;5.15;;
9597;SDS011;4837;50.890;4.724;2023-04-25T05:52:54;15.43;;;5.27;;
9597;SDS011;4837;50.890;4.724;2023-04-25T05:55:20;14.90;;;5.05;;
9597;SDS011;4837;50.890;4.724;2023-04-25T05:57:46;19.60;;;5.40;;
9597;SDS011;4837;50.890;4.724;2023-04-25T06:00:13;13.50;;;5.28;;
9597;SDS011;4837;50.890;4.724;2023-04-25T06:02:40;15.00;;;5.60;;
9597;SDS011;4837;50.890;4.724;2023-04-25T06:05:07;13.38;;;5.20;;
9597;SDS011;4837;50.890;4.724;2023-04-25T06:07:33;17.55;;;6.13;;
9597;SDS011;4837;50.890;4.724;2023-04-25T06:09:59;16.55;;;5.88;;
9597;SDS011;4837;50.890;4.724;2023-04-25T06:12:26;22.17;;;6.28;;
9597;SDS011;4837;50.890;4.724;2023-04-25T06:14:52;14.32;;;5.72;;
9597;SDS011;4837;50.890;4.724;2023-04-25T06:17:18;19.30;;;6.55;;
9597;SDS011;4837;50.890;4.724;2023-04-25T06:19:44;18.20;;;6.05;;
9597;SDS011;4837;50.890;4.724;2023-04-25T06:22:10;14.27;;;6.22;;
9597;SDS011;4837;50.890;4.724;2023-04-25T06:24:36;15.00;;;5.43;;
9597;SDS011;4837;50.890;4.724;2023-04-25T06:27:02;12.27;;;5.82;;
9597;SDS011;4837;50.890;4.724;2023-04-25T06:29:28;17.02;;;6.72;;
9597;SDS011;4837;50.890;4.724;2023-04-25T06:31:55;14.07;;;5.65;;
9597;SDS011;4837;50.890;4.724;2023-04-25T06:34:22;19.42;;;6.63;;
9597;SDS011;4837;50.890;4.724;2023-04-25T06:36:48;13.93;;;6.05;;
9597;SDS011;4837;50.890;4.724;2023-04-25T06:39:14;16.47;;;5.80;;
9597;SDS011;4837;50.890;4.724;2023-04-25T06:41:41;13.57;;;5.40;;
9597;SDS011;4837;50.890;4.724;2023-04-25T06:44:07;15.48;;;6.15;;
9597;SDS011;4837;50.890;4.724;2023-04-25T06:46:33;14.55;;;5.95;;
9597;SDS011;4837;50.890;4.724;2023-04-25T06:48:59;18.33;;;6.10;;
9597;SDS011;4837;50.890;4.724;2023-04-25T06:51:26;12.52;;;5.50;;
9597;SDS011;4837;50.890;4.724;2023-04-25T06:53:54;16.35;;;5.78;;
9597;SDS011;4837;50.890;4.724;2023-04-25T06:56:21;18.10;;;6.07;;
9597;SDS011;4837;50.890;4.724;2023-04-25T06:58:48;18.60;;;5.50;;
9597;SDS011;4837;50.890;4.724;2023-04-25T07:01:14;13.68;;;5.32;;
9597;SDS011;4837;50.890;4.724;2023-04-25T07:03:40;14.43;;;5.38;;
9597;SDS011;4837;50.890;4.724;2023-04-25T07:06:06;16.80;;;5.57;;
9597;SDS011;4837;50.890;4.724;2023-04-25T07:08:32;14.30;;;5.63;;
9597;SDS011;4837;50.890;4.724;2023-04-25T07:10:59;15.07;;;5.57;;
9597;SDS011;4837;50.890;4.724;2023-04-25T07:13:25;15.02;;;5.80;;
9597;SDS011;4837;50.890;4.724;2023-04-25T07:15:51;13.43;;;4.80;;
9597;SDS011;4837;50.890;4.724;2023-04-25T07:18:17;15.20;;;4.90;;
9597;SDS011;4837;50.890;4.724;2023-04-25T07:20:43;14.82;;;4.90;;
9597;SDS011;4837;50.890;4.724;2023-04-25T07:23:09;15.73;;;5.20;;
9597;SDS011;4837;50.890;4.724;2023-04-25T07:25:35;14.25;;;5.35;;
9597;SDS011;4837;50.890;4.724;2023-04-25T07:28:01;12.90;;;5.20;;
9597;SDS011;4837;50.890;4.724;2023-04-25T07:30:28;13.95;;;4.53;;
9597;SDS011;4837;50.890;4.724;2023-04-25T07:32:54;14.63;;;4.68;;
9597;SDS011;4837;50.890;4.724;2023-04-25T07:35:20;15.30;;;4.30;;
9597;SDS011;4837;50.890;4.724;2023-04-25T07:37:46;13.63;;;4.57;;
9597;SDS011;4837;50.890;4.724;2023-04-25T07:40:13;11.30;;;4.15;;
9597;SDS011;4837;50.890;4.724;2023-04-25T07:42:41;13.32;;;4.22;;
9597;SDS011;4837;50.890;4.724;2023-04-25T07:45:07;11.48;;;4.22;;
9597;SDS011;4837;50.890;4.724;2023-04-25T07:47:34;16.38;;;4.22;;
9597;SDS011;4837;50.890;4.724;2023-04-25T07:50:01;14.77;;;4.28;;
9597;SDS011;4837;50.890;4.724;2023-04-25T07:52:27;12.60;;;4.40;;
9597;SDS011;4837;50.890;4.724;2023-04-25T07:54:53;10.35;;;4.00;;
9597;SDS011;4837;50.890;4.724;2023-04-25T07:57:19;15.57;;;4.00;;
9597;SDS011;4837;50.890;4.724;2023-04-25T07:59:46;9.73;;;3.92;;
9597;SDS011;4837;50.890;4.724;2023-04-25T08:02:12;15.02;;;4.00;;
9597;SDS011;4837;50.890;4.724;2023-04-25T08:04:38;13.93;;;3.83;;
9597;SDS011;4837;50.890;4.724;2023-04-25T08:07:04;15.57;;;4.00;;
9597;SDS011;4837;50.890;4.724;2023-04-25T08:09:30;10.35;;;4.60;;
9597;SDS011;4837;50.890;4.724;2023-04-25T08:12:00;11.73;;;3.90;;
9597;SDS011;4837;50.890;4.724;2023-04-25T08:14:27;9.35;;;3.58;;
9597;SDS011;4837;50.890;4.724;2023-04-25T08:16:56;11.25;;;3.58;;
9597;SDS011;4837;50.890;4.724;2023-04-25T08:19:22;11.15;;;3.90;;
9597;SDS011;4837;50.890;4.724;2023-04-25T08:21:48;12.00;;;4.03;;
9597;SDS011;4837;50.890;4.724;2023-04-25T08:24:16;13.93;;;3.90;;
9597;SDS011;4837;50.890;4.724;2023-04-25T08:26:42;12.73;;;4.13;;
9597;SDS011;4837;50.890;4.724;2023-04-25T08:29:09;11.23;;;3.72;;
9597;SDS011;4837;50.890;4.724;2023-04-25T08:31:35;12.48;;;4.18;;
9597;SDS011;4837;50.890;4.724;2023-04-25T08:34:01;11.10;;;3.20;;
9597;SDS011;4837;50.890;4.724;2023-04-25T08:36:27;13.20;;;3.42;;
9597;SDS011;4837;50.890;4.724;2023-04-25T08:38:53;9.75;;;4.05;;
9597;SDS011;4837;50.890;4.724;2023-04-25T08:41:22;8.77;;;3.47;;
9597;SDS011;4837;50.890;4.724;2023-04-25T08:43:48;12.00;;;3.42;;
9597;SDS011;4837;50.890;4.724;2023-04-25T08:46:17;9.27;;;3.33;;
9597;SDS011;4837;50.890;4.724;2023-04-25T08:48:44;8.43;;;3.50;;
9597;SDS011;4837;50.890;4.724;2023-04-25T08:51:15;11.98;;;3.20;;
9597;SDS011;4837;50.890;4.724;2023-04-25T08:53:48;7.20;;;3.15;;
9597;SDS011;4837;50.890;4.724;2023-04-25T08:56:15;7.88;;;3.03;;
9597;SDS011;4837;50.890;4.724;2023-04-25T08:58:50;9.52;;;3.42;;
9597;SDS011;4837;50.890;4.724;2023-04-25T09:01:17;9.20;;;2.95;;
9597;SDS011;4837;50.890;4.724;2023-04-25T09:03:44;11.88;;;3.00;;
9597;SDS011;4837;50.890;4.724;2023-04-25T09:06:10;10.90;;;3.25;;
9597;SDS011;4837;50.890;4.724;2023-04-25T09:08:37;9.90;;;3.60;;
9597;SDS011;4837;50.890;4.724;2023-04-25T09:11:08;7.57;;;2.58;;
9597;SDS011;4837;50.890;4.724;2023-04-25T09:13:34;9.02;;;3.08;;
9597;SDS011;4837;50.890;4.724;2023-04-25T09:16:00;9.57;;;2.97;;
9597;SDS011;4837;50.890;4.724;2023-04-25T09:18:30;10.68;;;2.83;;
9597;SDS011;4837;50.890;4.724;2023-04-25T09:20:58;6.25;;;2.47;;
9597;SDS011;4837;50.890;4.724;2023-04-25T09:23:30;7.78;;;2.47;;
9597;SDS011;4837;50.890;4.724;2023-04-25T09:25:58;6.80;;;2.35;;
9597;SDS011;4837;50.890;4.724;2023-04-25T09:28:24;6.35;;;2.72;;
9597;SDS011;4837;50.890;4.724;2023-04-25T09:30:56;6.20;;;2.13;;
9597;SDS011;4837;50.890;4.724;2023-04-25T09:33:29;7.97;;;2.53;;
9597;SDS011;4837;50.890;4.724;2023-04-25T09:36:06;6.68;;;2.97;;
9597;SDS011;4837;50.890;4.724;2023-04-25T09:38:34;9.73;;;2.75;;
9597;SDS011;4837;50.890;4.724;2023-04-25T09:41:08;9.40;;;2.80;;
9597;SDS011;4837;50.890;4.724;2023-04-25T09:43:35;9.77;;;2.70;;
9597;SDS011;4837;50.890;4.724;2023-04-25T09:46:02;7.10;;;2.17;;
9597;SDS011;4837;50.890;4.724;2023-04-25T09:48:28;6.30;;;2.42;;
9597;SDS011;4837;50.890;4.724;2023-04-25T09:51:04;8.38;;;2.20;;
9597;SDS011;4837;50.890;4.724;2023-04-25T09:53:31;5.78;;;2.20;;
9597;SDS011;4837;50.890;4.724;2023-04-25T09:55:58;7.32;;;2.47;;
9597;SDS011;4837;50.890;4.724;2023-04-25T09:58:25;8.10;;;2.20;;
9597;SDS011;4837;50.890;4.724;2023-04-25T10:00:56;6.55;;;2.50;;
9597;SDS011;4837;50.890;4.724;2023-04-25T10:03:25;7.68;;;2.35;;
9597;SDS011;4837;50.890;4.724;2023-04-25T10:05:52;5.33;;;2.00;;
9597;SDS011;4837;50.890;4.724;2023-04-25T10:08:19;11.00;;;2.35;;
9597;SDS011;4837;50.890;4.724;2023-04-25T10:10:46;4.80;;;1.90;;
9597;SDS011;4837;50.890;4.724;2023-04-25T10:13:13;6.05;;;1.75;;
9597;SDS011;4837;50.890;4.724;2023-04-25T10:15:39;4.68;;;1.65;;
9597;SDS011;4837;50.890;4.724;2023-04-25T10:18:06;3.53;;;1.30;;
9597;SDS011;4837;50.890;4.724;2023-04-25T10:20:32;4.32;;;1.50;;
9597;SDS011;4837;50.890;4.724;2023-04-25T10:23:03;2.83;;;1.25;;
9597;SDS011;4837;50.890;4.724;2023-04-25T10:25:32;4.38;;;1.50;;
9597;SDS011;4837;50.890;4.724;2023-04-25T10:27:59;4.15;;;1.27;;
9597;SDS011;4837;50.890;4.724;2023-04-25T10:30:27;3.03;;;1.40;;
9597;SDS011;4837;50.890;4.724;2023-04-25T10:32:54;2.90;;;1.30;;
9597;SDS011;4837;50.890;4.724;2023-04-25T10:37:56;5.15;;;1.52;;
9597;SDS011;4837;50.890;4.724;2023-04-25T10:40:23;4.05;;;1.70;;
9597;SDS011;4837;50.890;4.724;2023-04-25T10:42:51;3.20;;;1.38;;
9597;SDS011;4837;50.890;4.724;2023-04-25T10:45:18;3.25;;;1.30;;
9597;SDS011;4837;50.890;4.724;2023-04-25T10:47:44;3.30;;;1.40;;
9597;SDS011;4837;50.890;4.724;2023-04-25T10:50:11;3.60;;;1.30;;
9597;SDS011;4837;50.890;4.724;2023-04-25T10:52:40;4.80;;;1.50;;
9597;SDS011;4837;50.890;4.724;2023-04-25T10:55:06;3.38;;;1.42;;
9597;SDS011;4837;50.890;4.724;2023-04-25T10:57:42;3.00;;;1.20;;
9597;SDS011;4837;50.890;4.724;2023-04-25T11:05:10;3.50;;;1.90;;
9597;SDS011;4837;50.890;4.724;2023-04-25T11:07:47;4.70;;;1.58;;
9597;SDS011;4837;50.890;4.724;2023-04-25T11:10:15;3.85;;;1.40;;
9597;SDS011;4837;50.890;4.724;2023-04-25T11:12:41;4.97;;;1.67;;
9597;SDS011;4837;50.890;4.724;2023-04-25T11:15:08;4.30;;;1.60;;
9597;SDS011;4837;50.890;4.724;2023-04-25T11:17:34;8.13;;;1.80;;
9597;SDS011;4837;50.890;4.724;2023-04-25T11:20:00;6.43;;;1.60;;
9597;SDS011;4837;50.890;4.724;2023-04-25T11:22:31;5.88;;;1.80;;
9597;SDS011;4837;50.890;4.724;2023-04-25T11:24:57;3.47;;;1.80;;
9597;SDS011;4837;50.890;4.724;2023-04-25T11:27:23;6.38;;;2.00;;
9597;SDS011;4837;50.890;4.724;2023-04-25T11:29:49;5.82;;;1.77;;
9597;SDS011;4837;50.890;4.724;2023-04-25T11:32:16;4.82;;;1.77;;
9597;SDS011;4837;50.890;4.724;2023-04-25T11:34:42;2.97;;;1.58;;
9597;SDS011;4837;50.890;4.724;2023-04-25T11:37:10;5.32;;;1.55;;
9597;SDS011;4837;50.890;4.724;2023-04-25T11:39:43;6.05;;;1.90;;
9597;SDS011;4837;50.890;4.724;2023-04-25T11:42:10;3.63;;;1.55;;
9597;SDS011;4837;50.890;4.724;2023-04-25T11:44:37;4.53;;;1.58;;
9597;SDS011;4837;50.890;4.724;2023-04-25T11:47:04;3.85;;;1.30;;
9597;SDS011;4837;50.890;4.724;2023-04-25T11:49:30;5.10;;;1.48;;
9597;SDS011;4837;50.890;4.724;2023-04-25T11:51:57;3.58;;;1.58;;
9597;SDS011;4837;50.890;4.724;2023-04-25T11:54:23;2.83;;;1.70;;
9597;SDS011;4837;50.890;4.724;2023-04-25T11:56:50;4.93;;;2.05;;
9597;SDS011;4837;50.890;4.724;2023-04-25T11:59:16;3.88;;;1.75;;
9597;SDS011;4837;50.890;4.724;2023-04-25T12:01:47;6.72;;;1.98;;
9597;SDS011;4837;50.890;4.724;2023-04-25T12:04:14;5.30;;;1.95;;
9597;SDS011;4837;50.890;4.724;2023-04-25T12:06:41;4.55;;;1.80;;
9597;SDS011;4837;50.890;4.724;2023-04-25T12:09:08;4.80;;;1.75;;
9597;SDS011;4837;50.890;4.724;2023-04-25T12:14:08;6.25;;;2.03;;
9597;SDS011;4837;50.890;4.724;2023-04-25T12:16:42;5.07;;;1.65;;
9597;SDS011;4837;50.890;4.724;2023-04-25T12:19:08;6.35;;;2.10;;
9597;SDS011;4837;50.890;4.724;2023-04-25T12:21:35;3.83;;;1.60;;
9597;SDS011;4837;50.890;4.724;2023-04-25T12:26:49;6.30;;;1.83;;
9597;SDS011;4837;50.890;4.724;2023-04-25T12:29:17;5.00;;;2.08;;
9597;SDS011;4837;50.890;4.724;2023-04-25T12:31:43;5.40;;;1.98;;
9597;SDS011;4837;50.890;4.724;2023-04-25T12:34:10;3.70;;;1.67;;
9597;SDS011;4837;50.890;4.724;2023-04-25T12:36:37;3.17;;;2.05;;
9597;SDS011;4837;50.890;4.724;2023-04-25T12:39:03;3.53;;;2.10;;
9597;SDS011;4837;50.890;4.724;2023-04-25T12:41:30;3.53;;;1.60;;
9597;SDS011;4837;50.890;4.724;2023-04-25T12:43:56;3.67;;;1.77;;
9597;SDS011;4837;50.890;4.724;2023-04-25T12:46:22;3.83;;;1.60;;
9597;SDS011;4837;50.890;4.724;2023-04-25T12:48:48;4.10;;;1.90;;
9597;SDS011;4837;50.890;4.724;2023-04-25T12:51:15;3.28;;;1.77;;
9597;SDS011;4837;50.890;4.724;2023-04-25T12:53:41;5.95;;;2.15;;
9597;SDS011;4837;50.890;4.724;2023-04-25T12:56:07;3.45;;;1.70;;
9597;SDS011;4837;50.890;4.724;2023-04-25T12:58:34;2.72;;;1.50;;
9597;SDS011;4837;50.890;4.724;2023-04-25T13:01:00;3.83;;;1.80;;
9597;SDS011;4837;50.890;4.724;2023-04-25T13:03:26;5.20;;;1.80;;
9597;SDS011;4837;50.890;4.724;2023-04-25T13:05:52;5.78;;;1.33;;
9597;SDS011;4837;50.890;4.724;2023-04-25T13:08:19;2.33;;;1.40;;
9597;SDS011;4837;50.890;4.724;2023-04-25T13:10:45;5.57;;;1.65;;
9597;SDS011;4837;50.890;4.724;2023-04-25T13:13:11;4.28;;;1.40;;
9597;SDS011;4837;50.890;4.724;2023-04-25T13:15:38;5.05;;;1.67;;
9597;SDS011;4837;50.890;4.724;2023-04-25T13:18:04;4.43;;;1.50;;
9597;SDS011;4837;50.890;4.724;2023-04-25T13:20:33;3.90;;;1.58;;
9597;SDS011;4837;50.890;4.724;2023-04-25T13:22:59;5.03;;;1.70;;
9597;SDS011;4837;50.890;4.724;2023-04-25T13:25:25;2.90;;;1.25;;
9597;SDS011;4837;50.890;4.724;2023-04-25T13:27:51;3.88;;;1.40;;
9597;SDS011;4837;50.890;4.724;2023-04-25T13:30:18;6.93;;;1.38;;
9597;SDS011;4837;50.890;4.724;2023-04-25T13:32:44;3.10;;;1.50;;
9597;SDS011;4837;50.890;4.724;2023-04-25T13:35:11;5.25;;;1.40;;
9597;SDS011;4837;50.890;4.724;2023-04-25T13:37:39;5.30;;;1.67;;
9597;SDS011;4837;50.890;4.724;2023-04-25T13:40:06;5.53;;;1.38;;
9597;SDS011;4837;50.890;4.724;2023-04-25T13:42:34;4.22;;;1.30;;
9597;SDS011;4837;50.890;4.724;2023-04-25T13:45:01;5.30;;;1.63;;
9597;SDS011;4837;50.890;4.724;2023-04-25T13:47:27;3.50;;;1.80;;
9597;SDS011;4837;50.890;4.724;2023-04-25T13:49:53;4.55;;;1.65;;
9597;SDS011;4837;50.890;4.724;2023-04-25T13:52:19;5.82;;;2.08;;
9597;SDS011;4837;50.890;4.724;2023-04-25T13:54:46;4.07;;;1.70;;
9597;SDS011;4837;50.890;4.724;2023-04-25T13:57:12;4.03;;;1.52;;
9597;SDS011;4837;50.890;4.724;2023-04-25T13:59:38;5.70;;;1.67;;
9597;SDS011;4837;50.890;4.724;2023-04-25T14:02:06;6.47;;;1.50;;
9597;SDS011;4837;50.890;4.724;2023-04-25T14:04:32;3.90;;;1.55;;
9597;SDS011;4837;50.890;4.724;2023-04-25T14:06:58;3.75;;;1.45;;
9597;SDS011;4837;50.890;4.724;2023-04-25T14:09:24;4.40;;;1.20;;
9597;SDS011;4837;50.890;4.724;2023-04-25T14:11:52;3.67;;;1.25;;
9597;SDS011;4837;50.890;4.724;2023-04-25T14:14:18;3.35;;;1.23;;
9597;SDS011;4837;50.890;4.724;2023-04-25T14:16:46;2.47;;;1.33;;
9597;SDS011;4837;50.890;4.724;2023-04-25T14:19:13;5.25;;;1.50;;
9597;SDS011;4837;50.890;4.724;2023-04-25T14:21:40;3.97;;;1.30;;
9597;SDS011;4837;50.890;4.724;2023-04-25T14:24:06;3.88;;;1.70;;
9597;SDS011;4837;50.890;4.724;2023-04-25T14:26:35;1.95;;;1.30;;
9597;SDS011;4837;50.890;4.724;2023-04-25T14:29:02;2.92;;;1.30;;
9597;SDS011;4837;50.890;4.724;2023-04-25T14:31:28;5.03;;;1.42;;
9597;SDS011;4837;50.890;4.724;2023-04-25T14:33:54;4.07;;;1.30;;
9597;SDS011;4837;50.890;4.724;2023-04-25T14:36:20;3.58;;;1.20;;
9597;SDS011;4837;50.890;4.724;2023-04-25T14:38:46;6.32;;;1.63;;
9597;SDS011;4837;50.890;4.724;2023-04-25T14:41:13;4.28;;;1.90;;
9597;SDS011;4837;50.890;4.724;2023-04-25T14:43:39;4.10;;;1.55;;
9597;SDS011;4837;50.890;4.724;2023-04-25T14:46:06;3.17;;;1.27;;
9597;SDS011;4837;50.890;4.724;2023-04-25T14:48:32;3.80;;;1.55;;
9597;SDS011;4837;50.890;4.724;2023-04-25T14:50:59;3.80;;;1.77;;
9597;SDS011;4837;50.890;4.724;2023-04-25T14:53:25;3.20;;;1.50;;
9597;SDS011;4837;50.890;4.724;2023-04-25T14:55:51;1.70;;;1.25;;
9597;SDS011;4837;50.890;4.724;2023-04-25T14:58:18;5.72;;;1.30;;
9597;SDS011;4837;50.890;4.724;2023-04-25T15:00:45;4.65;;;1.50;;
9597;SDS011;4837;50.890;4.724;2023-04-25T15:03:11;4.57;;;1.60;;
9597;SDS011;4837;50.890;4.724;2023-04-25T15:05:41;3.17;;;1.30;;
9597;SDS011;4837;50.890;4.724;2023-04-25T15:08:07;4.15;;;1.70;;
9597;SDS011;4837;50.890;4.724;2023-04-25T15:10:34;5.57;;;1.48;;
9597;SDS011;4837;50.890;4.724;2023-04-25T15:13:00;2.60;;;1.40;;
9597;SDS011;4837;50.890;4.724;2023-04-25T15:15:26;2.40;;;1.40;;
9597;SDS011;4837;50.890;4.724;2023-04-25T15:17:53;2.42;;;1.20;;